Aérodrome :
LOGIN :

S'inscrire | Disclaimer

   EN    FR    IT 

 










Légende :    VFR   VFR Marginal   IFR   IFR Intensif   IFR Très Intensif
Visi : 
Plafond : 
>= 8 km
>= 3000ft
5 à 8 km
1000 à 3000 ft
1500m à 5 km
500 à 1000 ft
800 à 1500m
200 à 500 ft
< 800m
< 200 ft
Symboles :   Orages  Brouillard  Fortes neiges  Fortes précipitations  Vent > 20 kt
SIGMETs :   Divers  Orages  Givrage  Turbulence  Onde Orograph.  Cendres Volcan.






- Altitude de l'aérodrome : 25 ft
- Code IATA : QCY


EGXC - RAF Coningsby

DERNIER METAR :
  • 301950Z 01008KT 9999 FEW018 BKN030 06/04 Q1033 RMK BLU

METARs EXPIRÉS :
  • 301850Z 01010KT 9999 FEW014 06/03 Q1033 RMK BLU
  • 301750Z 02012KT 9999 FEW014 SCT030 07/05 Q1033 RMK BLU

TAF TAF EGXC
Valide du 30 à 18h jusqu'au 31 à 12h UTC


301630Z 3018/3112 01014KT 9999 BKN030
TEMPO 3018/3101 SCT022
PROB30
TEMPO 3018/3022 SCT014
PROB30
TEMPO 3101/3106 5000 BR



MET'MAP, la Météo Aéronautique d'un coup d'oeil ! - Copyright ORBIFLY Décembre 2007 - Disclaimer

ORBIFLY MET'MAP TEAM :

Programmation & Développement : Alexandra Zaïnal
Sur une idée originale de : Baudouin d'Aumeries
Assistance à la programmation : Marc-Olivier Méhu
Soutien technique & logistique : Manuel Goepfert

Contact : metmap@orbifly.com




SOURCES & CREDITS :

   NOAA